Pride Of Rotterdam — PBAJ — position and weather

sailwx.info

Track history (hours):
 
Tides and Currents Weather Stations Pressure Air Temp Water Temp Dewpoint Dewpoint Depression Visibility Wind Speed Wind Dir Waves Ship Positions

Pride Of Rotterdam

Operator: P&O Ferries

Last reported at 2017-Jan-21 02:33 UTC. Time now 2017-Jan-21 04:27 UTC.
Position N 52°45' E 002°00'.

Length 214 m; draft 5.8 m.

Type: Ship. MMSI: 244980000.

Date/timePositionNaut miles runAvg speedWind from/ knotsBaromVisibWave heightAir tempDewpointWater temp
2017-Jan-21 02:33N 52°45' E 002°00'1818.4
2017-Jan-21 01:34N 52°54' E 001°35'1818.3
2017-Jan-21 00:33N 53°02' E 001°07'2317.1
2017-Jan-20 23:13N 53°18' E 000°39'1116.7
2017-Jan-20 22:32N 53°26' E 000°26'1616.3
2017-Jan-20 21:34N 53°35' E 000°04'1413.8
2017-Jan-20 20:33N 53°43' W 000°15'2 1.7
2017-Jan-20 19:30N 53°44' W 000°17'0 0.0
2017-Jan-20 18:33N 53°44' W 000°17'0 0.0
2017-Jan-20 17:32N 53°44' W 000°17'0 0.0
2017-Jan-20 16:32N 53°44' W 000°17'0 0.0
2017-Jan-20 15:32N 53°44' W 000°17'0 0.0
2017-Jan-20 14:31N 53°44' W 000°17'0 0.0
2017-Jan-20 13:31N 53°44' W 000°17'0 0.0
2017-Jan-20 12:33N 53°44' W 000°17'0 0.0
2017-Jan-20 11:30N 53°44' W 000°17'0 0.0
2017-Jan-20 10:32N 53°44' W 000°17'0 0.0
2017-Jan-20 09:32N 53°44' W 000°17'0 0.0
2017-Jan-20 08:32N 53°44' W 000°17'0 0.0
2017-Jan-20 07:31N 53°44' W 000°17'0 0.3
2017-Jan-20 06:33N 53°44' W 000°16'1010.2
2017-Jan-20 05:34N 53°37' W 000°05'4317.4
2017-Jan-20 03:06N 53°20' E 001°01'1019.3
2017-Jan-20 02:34N 53°13' E 001°15'1919.3
2017-Jan-20 01:34N 53°02' E 001°41'1918.9
2017-Jan-20 00:33N 52°51' E 002°07'1919.1
2017-Jan-19 23:33N 52°38' E 002°29'2020.2
2017-Jan-19 22:33N 52°26' E 002°56'2120.6
2017-Jan-19 21:34N 52°13' E 003°22'2020.0
2017-Jan-19 20:34N 52°04' E 003°51'1312.3
2017-Jan-19 19:32N 51°57' E 004°08'0 0.0
2017-Jan-19 18:29N 51°57' E 004°08'0 0.0
2017-Jan-19 17:31N 51°57' E 004°08'0 0.0
2017-Jan-19 16:31N 51°57' E 004°08'0 0.0
2017-Jan-19 15:33N 51°57' E 004°08'0 0.0
2017-Jan-19 14:33N 51°57' E 004°08'0 0.0
2017-Jan-19 13:30N 51°57' E 004°08'0 0.0
2017-Jan-19 12:33N 51°57' E 004°08'0 0.0
2017-Jan-19 11:32N 51°57' E 004°08'0 0.0
2017-Jan-19 10:32N 51°57' E 004°08'0 0.0
2017-Jan-19 09:31N 51°57' E 004°08'0 0.0
2017-Jan-19 08:33N 51°57' E 004°08'0 0.0
2017-Jan-19 07:34N 51°57' E 004°08'10 9.9
2017-Jan-19 06:34N 52°01' E 003°53'1817.7
2017-Jan-19 05:34N 52°08' E 003°27'1817.7
2017-Jan-19 04:33N 52°18' E 003°03'4218.1
2017-Jan-19 02:15N 52°42' E 002°07'1318.9
2017-Jan-19 01:33N 52°49' E 001°48'1919.3
2017-Jan-19 00:34N 52°58' E 001°21'5518.5
2017-Jan-18 21:33N 53°33' E 000°08'1615.8
2017-Jan-18 20:33N 53°42' W 000°14'3 3.2
2017-Jan-18 19:32N 53°44' W 000°17'0 0.0
2017-Jan-18 18:31N 53°44' W 000°17'0 0.0
2017-Jan-18 17:31N 53°44' W 000°17'0 0.0
2017-Jan-18 16:31N 53°44' W 000°17'0 0.0
2017-Jan-18 15:33N 53°44' W 000°17'0 0.0
2017-Jan-18 14:33N 53°44' W 000°17'0 0.0
2017-Jan-18 13:32N 53°44' W 000°17'0 0.0
2017-Jan-18 12:32N 53°44' W 000°17'0 0.0
2017-Jan-18 11:22N 53°44' W 000°17'0 0.0
2017-Jan-18 10:31N 53°44' W 000°17'0 0.0
2017-Jan-18 09:31N 53°44' W 000°17'0 0.0
2017-Jan-18 08:33N 53°44' W 000°17'0 0.0
2017-Jan-18 07:33N 53°44' W 000°17'1 1.1
2017-Jan-18 06:34N 53°44' W 000°15'1414.2
2017-Jan-18 05:33N 53°35' E 000°03'1917.2
2017-Jan-18 04:28N 53°29' E 000°33'2018.9
2017-Jan-18 03:24N 53°19' E 001°02'1619.5
2017-Jan-18 02:33N 53°09' E 001°24'1919.4
2017-Jan-18 01:33N 52°58' E 001°51'6318.0
2017-Jan-17 22:05N 52°19' E 003°11'1018.7
2017-Jan-17 21:33N 52°12' E 003°24'1918.6
2017-Jan-17 20:33N 52°05' E 003°51'1312.4
2017-Jan-17 19:31N 51°57' E 004°08'0 0.0
2017-Jan-17 18:31N 51°57' E 004°08'0 0.0
2017-Jan-17 17:33N 51°57' E 004°08'0 0.0
2017-Jan-17 16:33N 51°57' E 004°08'0 0.0
2017-Jan-17 15:32N 51°57' E 004°08'0 0.0
2017-Jan-17 14:32N 51°57' E 004°08'0 0.0
2017-Jan-17 13:32N 51°57' E 004°08'0 0.0
2017-Jan-17 12:32N 51°57' E 004°08'0 0.0
2017-Jan-17 11:28N 51°57' E 004°08'0 0.0
2017-Jan-17 10:33N 51°57' E 004°08'0 0.0
2017-Jan-17 09:33N 51°57' E 004°08'0 0.0
2017-Jan-17 08:32N 51°57' E 004°08'0 0.0
2017-Jan-17 07:33N 51°57' E 004°08'1212.1
2017-Jan-17 06:34N 52°01' E 003°50'1818.1
2017-Jan-17 05:34N 52°09' E 003°23'6118.7
2017-Jan-17 02:18N 52°44' E 002°02'1419.4
2017-Jan-17 01:34N 52°52' E 001°42'2019.6
2017-Jan-17 00:33N 53°06' E 001°19'4318.6
2017-Jan-16 22:15N 53°30' E 000°19'1318.4
2017-Jan-16 21:34N 53°35' W 000°00'1313.2
2017-Jan-16 20:33N 53°44' W 000°17'0 0.0
2017-Jan-16 19:32N 53°44' W 000°17'0 0.0
2017-Jan-16 18:31N 53°44' W 000°17'0 0.0
2017-Jan-16 17:31N 53°44' W 000°17'0 0.0
2017-Jan-16 16:31N 53°44' W 000°17'0 0.0
2017-Jan-16 15:33N 53°44' W 000°17'0 0.0
2017-Jan-16 14:30N 53°44' W 000°17'0 0.0
2017-Jan-16 13:32N 53°44' W 000°17'0 0.0
2017-Jan-16 12:32N 53°44' W 000°17'0 0.0
2017-Jan-16 11:31N 53°44' W 000°17'0 0.0
2017-Jan-16 10:31N 53°44' W 000°17'0 0.0
2017-Jan-16 09:31N 53°44' W 000°17'0 0.0
2017-Jan-16 08:33N 53°44' W 000°17'0 0.0
2017-Jan-16 07:33N 53°44' W 000°17'1 1.5
2017-Jan-16 06:33N 53°43' W 000°15'1514.7
2017-Jan-16 05:34N 53°34' E 000°05'4116.6
2017-Jan-16 03:05N 53°16' E 001°06'1018.7
2017-Jan-16 02:34N 53°09' E 001°18'1918.7
2017-Jan-16 01:34N 52°56' E 001°39'1717.3
2017-Jan-16 00:33N 52°45' E 002°02'3316.1
2017-Jan-15 22:31N 52°27' E 002°47'3916.2
2017-Jan-15 20:08N 52°06' E 003°40'916.4
2017-Jan-15 19:34N 52°03' E 003°54'10 9.7
2017-Jan-15 18:29N 51°57' E 004°08'0 0.0
2017-Jan-15 17:32N 51°57' E 004°08'0 0.0
2017-Jan-15 16:32N 51°57' E 004°08'0 0.0
2017-Jan-15 15:28N 51°57' E 004°08'0 0.0
2017-Jan-15 14:33N 51°57' E 004°08'0 0.0
2017-Jan-15 13:33N 51°57' E 004°08'0 0.0
2017-Jan-15 12:32N 51°57' E 004°08'0 0.0
2017-Jan-15 11:32N 51°57' E 004°08'0 0.0
2017-Jan-15 10:32N 51°57' E 004°08'0 0.0
2017-Jan-15 09:32N 51°57' E 004°08'0 0.0
2017-Jan-15 08:31N 51°57' E 004°08'2 2.4
2017-Jan-15 07:33N 51°59' E 004°06'1616.2
2017-Jan-15 06:33N 52°04' E 003°41'7016.4
2017-Jan-15 02:16N 52°47' E 002°10'1216.5
2017-Jan-15 01:33N 52°55' E 001°55'1716.7
2017-Jan-15 00:33N 53°04' E 001°32'5116.8
2017-Jan-14 21:31N 53°30' E 000°19'1818.6
2017-Jan-14 20:33N 53°38' W 000°08'8 8.3
2017-Jan-14 19:33N 53°44' W 000°17'0 0.0
2017-Jan-14 18:33N 53°44' W 000°17'0 0.0
2017-Jan-14 17:32N 53°44' W 000°17'0 0.0
2017-Jan-14 16:32N 53°44' W 000°17'0 0.0
2017-Jan-14 15:31N 53°44' W 000°17'0 0.0
2017-Jan-14 14:31N 53°44' W 000°17'0 0.0
2017-Jan-14 13:33N 53°44' W 000°17'0 0.0
2017-Jan-14 12:33N 53°44' W 000°17'0 0.0
2017-Jan-14 11:33N 53°44' W 000°17'0 0.0
2017-Jan-14 10:32N 53°44' W 000°17'0 0.0
2017-Jan-14 09:32N 53°44' W 000°17'0 0.1
2017-Jan-14 08:33N 53°44' W 000°17'1413.7
2017-Jan-14 07:34N 53°35' E 000°00'4615.4
2017-Jan-14 04:33N 53°14' E 001°09'1717.5
2017-Jan-14 03:34N 53°01' E 001°29'9816.3
2017-Jan-13 21:33N 52°06' E 003°42'1514.7
2017-Jan-13 20:33N 51°59' E 004°03'4 3.9
2017-Jan-13 19:33N 51°57' E 004°08'0 0.0
2017-Jan-13 18:29N 51°57' E 004°08'0 0.0
2017-Jan-13 17:32N 51°57' E 004°08'0 0.0
2017-Jan-13 16:32N 51°57' E 004°08'0 0.0
2017-Jan-13 15:31N 51°57' E 004°08'0 0.0
2017-Jan-13 14:31N 51°57' E 004°08'0 0.0
2017-Jan-13 13:33N 51°57' E 004°08'0 0.0
2017-Jan-13 12:33N 51°57' E 004°08'0 0.0
2017-Jan-13 11:32N 51°57' E 004°08'0 0.0
2017-Jan-13 10:32N 51°57' E 004°08'0 0.0
2017-Jan-13 09:32N 51°57' E 004°08'0 0.0
2017-Jan-13 08:33N 51°57' E 004°08'0 0.0
2017-Jan-13 07:33N 51°57' E 004°08'1111.3
2017-Jan-13 06:34N 52°01' E 003°51'7719.2
2017-Jan-13 02:34N 52°47' E 002°10'1818.4
2017-Jan-13 01:33N 52°59' E 001°46'1918.5
2017-Jan-13 00:33N 53°10' E 001°21'5317.7
2017-Jan-12 21:34N 53°35' E 000°03'1515.0
2017-Jan-12 20:34N 53°44' W 000°16'0 0.2
2017-Jan-12 19:33N 53°44' W 000°17'0 0.0
2017-Jan-12 18:32N 53°44' W 000°17'0 0.0
2017-Jan-12 17:32N 53°44' W 000°17'0 0.0
2017-Jan-12 16:31N 53°44' W 000°17'0 0.0
2017-Jan-12 15:31N 53°44' W 000°17'0 0.0
2017-Jan-12 14:31N 53°44' W 000°17'0 0.0
2017-Jan-12 13:33N 53°44' W 000°17'0 0.0
2017-Jan-12 12:33N 53°44' W 000°17'0 0.0
2017-Jan-12 11:32N 53°44' W 000°17'0 0.0
2017-Jan-12 10:32N 53°44' W 000°17'0 0.0
2017-Jan-12 09:31N 53°44' W 000°17'0 0.0
2017-Jan-12 08:31N 53°44' W 000°17'0 0.0
2017-Jan-12 07:31N 53°44' W 000°17'5 5.1
2017-Jan-12 06:34N 53°40' W 000°13'1916.2
2017-Jan-12 05:22N 53°33' E 000°18'3416.4
2017-Jan-12 03:17N 53°15' E 001°07'1318.6
2017-Jan-12 02:33N 53°05' E 001°22'2120.8
2017-Jan-12 01:33N 52°51' E 001°47'8018.7
2017-Jan-11 21:17N 52°07' E 003°36'1317.4
2017-Jan-11 20:34N 52°02' E 003°55'9 9.4
2017-Jan-11 19:33N 51°57' E 004°08'0 0.0
2017-Jan-11 18:33N 51°57' E 004°08'0 0.0
2017-Jan-11 17:32N 51°57' E 004°08'0 0.0
2017-Jan-11 16:32N 51°57' E 004°08'0 0.0
2017-Jan-11 15:31N 51°57' E 004°08'0 0.0
2017-Jan-11 14:31N 51°57' E 004°08'0 0.0
2017-Jan-11 13:27N 51°57' E 004°08'0 0.0
2017-Jan-11 12:33N 51°57' E 004°08'0 0.0
2017-Jan-11 11:33N 51°57' E 004°08'0 0.0
2017-Jan-11 10:33N 51°57' E 004°08'0 0.0
2017-Jan-11 09:32N 51°57' E 004°08'0 0.0
2017-Jan-11 08:31N 51°57' E 004°08'1 0.8
2017-Jan-11 07:33N 51°57' E 004°08'1616.2
2017-Jan-11 06:33N 52°03' E 003°43'7020.2
2017-Jan-11 03:06N 52°45' E 002°11'1019.4
2017-Jan-11 02:33N 52°53' E 002°00'  
Track history (hours):
 
Tides and Currents Weather Stations Pressure Air Temp Water Temp Dewpoint Dewpoint Depression Visibility Wind Speed Wind Dir Waves Ship Positions

Pride Of Rotterdam

Operator: P&O Ferries

Last reported at 2017-Jan-21 02:33 UTC. Time now 2017-Jan-21 04:27 UTC.
Position N 52°45' E 002°00'.

Length 214 m; draft 5.8 m.

Type: Ship. MMSI: 244980000.

Date/timePositionNaut miles runAvg speedWind from/ knotsBaromVisibWave heightAir tempDewpointWater temp
2017-Jan-21 02:33N 52°45' E 002°00'1818.4
2017-Jan-21 01:34N 52°54' E 001°35'1818.3
2017-Jan-21 00:33N 53°02' E 001°07'2317.1
2017-Jan-20 23:13N 53°18' E 000°39'1116.7
2017-Jan-20 22:32N 53°26' E 000°26'1616.3
2017-Jan-20 21:34N 53°35' E 000°04'1413.8
2017-Jan-20 20:33N 53°43' W 000°15'2 1.7
2017-Jan-20 19:30N 53°44' W 000°17'0 0.0
2017-Jan-20 18:33N 53°44' W 000°17'0 0.0
2017-Jan-20 17:32N 53°44' W 000°17'0 0.0
2017-Jan-20 16:32N 53°44' W 000°17'0 0.0
2017-Jan-20 15:32N 53°44' W 000°17'0 0.0
2017-Jan-20 14:31N 53°44' W 000°17'0 0.0
2017-Jan-20 13:31N 53°44' W 000°17'0 0.0
2017-Jan-20 12:33N 53°44' W 000°17'0 0.0
2017-Jan-20 11:30N 53°44' W 000°17'0 0.0
2017-Jan-20 10:32N 53°44' W 000°17'0 0.0
2017-Jan-20 09:32N 53°44' W 000°17'0 0.0
2017-Jan-20 08:32N 53°44' W 000°17'0 0.0
2017-Jan-20 07:31N 53°44' W 000°17'0 0.3
2017-Jan-20 06:33N 53°44' W 000°16'1010.2
2017-Jan-20 05:34N 53°37' W 000°05'4317.4
2017-Jan-20 03:06N 53°20' E 001°01'1019.3
2017-Jan-20 02:34N 53°13' E 001°15'1919.3
2017-Jan-20 01:34N 53°02' E 001°41'1918.9
2017-Jan-20 00:33N 52°51' E 002°07'1919.1
2017-Jan-19 23:33N 52°38' E 002°29'2020.2
2017-Jan-19 22:33N 52°26' E 002°56'2120.6
2017-Jan-19 21:34N 52°13' E 003°22'2020.0
2017-Jan-19 20:34N 52°04' E 003°51'1312.3
2017-Jan-19 19:32N 51°57' E 004°08'0 0.0
2017-Jan-19 18:29N 51°57' E 004°08'0 0.0
2017-Jan-19 17:31N 51°57' E 004°08'0 0.0
2017-Jan-19 16:31N 51°57' E 004°08'0 0.0
2017-Jan-19 15:33N 51°57' E 004°08'0 0.0
2017-Jan-19 14:33N 51°57' E 004°08'0 0.0
2017-Jan-19 13:30N 51°57' E 004°08'0 0.0
2017-Jan-19 12:33N 51°57' E 004°08'0 0.0
2017-Jan-19 11:32N 51°57' E 004°08'0 0.0
2017-Jan-19 10:32N 51°57' E 004°08'0 0.0
2017-Jan-19 09:31N 51°57' E 004°08'0 0.0
2017-Jan-19 08:33N 51°57' E 004°08'0 0.0
2017-Jan-19 07:34N 51°57' E 004°08'10 9.9
2017-Jan-19 06:34N 52°01' E 003°53'1817.7
2017-Jan-19 05:34N 52°08' E 003°27'1817.7
2017-Jan-19 04:33N 52°18' E 003°03'4218.1
2017-Jan-19 02:15N 52°42' E 002°07'1318.9
2017-Jan-19 01:33N 52°49' E 001°48'1919.3
2017-Jan-19 00:34N 52°58' E 001°21'5518.5
2017-Jan-18 21:33N 53°33' E 000°08'1615.8
2017-Jan-18 20:33N 53°42' W 000°14'3 3.2
2017-Jan-18 19:32N 53°44' W 000°17'0 0.0
2017-Jan-18 18:31N 53°44' W 000°17'0 0.0
2017-Jan-18 17:31N 53°44' W 000°17'0 0.0
2017-Jan-18 16:31N 53°44' W 000°17'0 0.0
2017-Jan-18 15:33N 53°44' W 000°17'0 0.0
2017-Jan-18 14:33N 53°44' W 000°17'0 0.0
2017-Jan-18 13:32N 53°44' W 000°17'0 0.0
2017-Jan-18 12:32N 53°44' W 000°17'0 0.0
2017-Jan-18 11:22N 53°44' W 000°17'0 0.0
2017-Jan-18 10:31N 53°44' W 000°17'0 0.0
2017-Jan-18 09:31N 53°44' W 000°17'0 0.0
2017-Jan-18 08:33N 53°44' W 000°17'0 0.0
2017-Jan-18 07:33N 53°44' W 000°17'1 1.1
2017-Jan-18 06:34N 53°44' W 000°15'1414.2
2017-Jan-18 05:33N 53°35' E 000°03'1917.2
2017-Jan-18 04:28N 53°29' E 000°33'2018.9
2017-Jan-18 03:24N 53°19' E 001°02'1619.5
2017-Jan-18 02:33N 53°09' E 001°24'1919.4
2017-Jan-18 01:33N 52°58' E 001°51'6318.0
2017-Jan-17 22:05N 52°19' E 003°11'1018.7
2017-Jan-17 21:33N 52°12' E 003°24'1918.6
2017-Jan-17 20:33N 52°05' E 003°51'1312.4
2017-Jan-17 19:31N 51°57' E 004°08'0 0.0
2017-Jan-17 18:31N 51°57' E 004°08'0 0.0
2017-Jan-17 17:33N 51°57' E 004°08'0 0.0
2017-Jan-17 16:33N 51°57' E 004°08'0 0.0
2017-Jan-17 15:32N 51°57' E 004°08'0 0.0
2017-Jan-17 14:32N 51°57' E 004°08'0 0.0
2017-Jan-17 13:32N 51°57' E 004°08'0 0.0
2017-Jan-17 12:32N 51°57' E 004°08'0 0.0
2017-Jan-17 11:28N 51°57' E 004°08'0 0.0
2017-Jan-17 10:33N 51°57' E 004°08'0 0.0
2017-Jan-17 09:33N 51°57' E 004°08'0 0.0
2017-Jan-17 08:32N 51°57' E 004°08'0 0.0
2017-Jan-17 07:33N 51°57' E 004°08'1212.1
2017-Jan-17 06:34N 52°01' E 003°50'1818.1
2017-Jan-17 05:34N 52°09' E 003°23'6118.7
2017-Jan-17 02:18N 52°44' E 002°02'1419.4
2017-Jan-17 01:34N 52°52' E 001°42'2019.6
2017-Jan-17 00:33N 53°06' E 001°19'4318.6
2017-Jan-16 22:15N 53°30' E 000°19'1318.4
2017-Jan-16 21:34N 53°35' W 000°00'1313.2
2017-Jan-16 20:33N 53°44' W 000°17'0 0.0
2017-Jan-16 19:32N 53°44' W 000°17'0 0.0
2017-Jan-16 18:31N 53°44' W 000°17'0 0.0
2017-Jan-16 17:31N 53°44' W 000°17'0 0.0
2017-Jan-16 16:31N 53°44' W 000°17'0 0.0
2017-Jan-16 15:33N 53°44' W 000°17'0 0.0
2017-Jan-16 14:30N 53°44' W 000°17'0 0.0
2017-Jan-16 13:32N 53°44' W 000°17'0 0.0
2017-Jan-16 12:32N 53°44' W 000°17'0 0.0
2017-Jan-16 11:31N 53°44' W 000°17'0 0.0
2017-Jan-16 10:31N 53°44' W 000°17'0 0.0
2017-Jan-16 09:31N 53°44' W 000°17'0 0.0
2017-Jan-16 08:33N 53°44' W 000°17'0 0.0
2017-Jan-16 07:33N 53°44' W 000°17'1 1.5
2017-Jan-16 06:33N 53°43' W 000°15'1514.7
2017-Jan-16 05:34N 53°34' E 000°05'4116.6
2017-Jan-16 03:05N 53°16' E 001°06'1018.7
2017-Jan-16 02:34N 53°09' E 001°18'1918.7
2017-Jan-16 01:34N 52°56' E 001°39'1717.3
2017-Jan-16 00:33N 52°45' E 002°02'3316.1
2017-Jan-15 22:31N 52°27' E 002°47'3916.2
2017-Jan-15 20:08N 52°06' E 003°40'916.4
2017-Jan-15 19:34N 52°03' E 003°54'10 9.7
2017-Jan-15 18:29N 51°57' E 004°08'0 0.0
2017-Jan-15 17:32N 51°57' E 004°08'0 0.0
2017-Jan-15 16:32N 51°57' E 004°08'0 0.0
2017-Jan-15 15:28N 51°57' E 004°08'0 0.0
2017-Jan-15 14:33N 51°57' E 004°08'0 0.0
2017-Jan-15 13:33N 51°57' E 004°08'0 0.0
2017-Jan-15 12:32N 51°57' E 004°08'0 0.0
2017-Jan-15 11:32N 51°57' E 004°08'0 0.0
2017-Jan-15 10:32N 51°57' E 004°08'0 0.0
2017-Jan-15 09:32N 51°57' E 004°08'0 0.0
2017-Jan-15 08:31N 51°57' E 004°08'2 2.4
2017-Jan-15 07:33N 51°59' E 004°06'1616.2
2017-Jan-15 06:33N 52°04' E 003°41'7016.4
2017-Jan-15 02:16N 52°47' E 002°10'1216.5
2017-Jan-15 01:33N 52°55' E 001°55'1716.7
2017-Jan-15 00:33N 53°04' E 001°32'5116.8
2017-Jan-14 21:31N 53°30' E 000°19'1818.6
2017-Jan-14 20:33N 53°38' W 000°08'8 8.3
2017-Jan-14 19:33N 53°44' W 000°17'0 0.0
2017-Jan-14 18:33N 53°44' W 000°17'0 0.0
2017-Jan-14 17:32N 53°44' W 000°17'0 0.0
2017-Jan-14 16:32N 53°44' W 000°17'0 0.0
2017-Jan-14 15:31N 53°44' W 000°17'0 0.0
2017-Jan-14 14:31N 53°44' W 000°17'0 0.0
2017-Jan-14 13:33N 53°44' W 000°17'0 0.0
2017-Jan-14 12:33N 53°44' W 000°17'0 0.0
2017-Jan-14 11:33N 53°44' W 000°17'0 0.0
2017-Jan-14 10:32N 53°44' W 000°17'0 0.0
2017-Jan-14 09:32N 53°44' W 000°17'0 0.1
2017-Jan-14 08:33N 53°44' W 000°17'1413.7
2017-Jan-14 07:34N 53°35' E 000°00'4615.4
2017-Jan-14 04:33N 53°14' E 001°09'1717.5
2017-Jan-14 03:34N 53°01' E 001°29'9816.3
2017-Jan-13 21:33N 52°06' E 003°42'1514.7
2017-Jan-13 20:33N 51°59' E 004°03'4 3.9
2017-Jan-13 19:33N 51°57' E 004°08'0 0.0
2017-Jan-13 18:29N 51°57' E 004°08'0 0.0
2017-Jan-13 17:32N 51°57' E 004°08'0 0.0
2017-Jan-13 16:32N 51°57' E 004°08'0 0.0
2017-Jan-13 15:31N 51°57' E 004°08'0 0.0
2017-Jan-13 14:31N 51°57' E 004°08'0 0.0
2017-Jan-13 13:33N 51°57' E 004°08'0 0.0
2017-Jan-13 12:33N 51°57' E 004°08'0 0.0
2017-Jan-13 11:32N 51°57' E 004°08'0 0.0
2017-Jan-13 10:32N 51°57' E 004°08'0 0.0
2017-Jan-13 09:32N 51°57' E 004°08'0 0.0
2017-Jan-13 08:33N 51°57' E 004°08'0 0.0
2017-Jan-13 07:33N 51°57' E 004°08'1111.3
2017-Jan-13 06:34N 52°01' E 003°51'7719.2
2017-Jan-13 02:34N 52°47' E 002°10'1818.4
2017-Jan-13 01:33N 52°59' E 001°46'1918.5
2017-Jan-13 00:33N 53°10' E 001°21'5317.7
2017-Jan-12 21:34N 53°35' E 000°03'1515.0
2017-Jan-12 20:34N 53°44' W 000°16'0 0.2
2017-Jan-12 19:33N 53°44' W 000°17'0 0.0
2017-Jan-12 18:32N 53°44' W 000°17'0 0.0
2017-Jan-12 17:32N 53°44' W 000°17'0 0.0
2017-Jan-12 16:31N 53°44' W 000°17'0 0.0
2017-Jan-12 15:31N 53°44' W 000°17'0 0.0
2017-Jan-12 14:31N 53°44' W 000°17'0 0.0
2017-Jan-12 13:33N 53°44' W 000°17'0 0.0
2017-Jan-12 12:33N 53°44' W 000°17'0 0.0
2017-Jan-12 11:32N 53°44' W 000°17'0 0.0
2017-Jan-12 10:32N 53°44' W 000°17'0 0.0
2017-Jan-12 09:31N 53°44' W 000°17'0 0.0
2017-Jan-12 08:31N 53°44' W 000°17'0 0.0
2017-Jan-12 07:31N 53°44' W 000°17'5 5.1
2017-Jan-12 06:34N 53°40' W 000°13'1916.2
2017-Jan-12 05:22N 53°33' E 000°18'3416.4
2017-Jan-12 03:17N 53°15' E 001°07'1318.6
2017-Jan-12 02:33N 53°05' E 001°22'2120.8
2017-Jan-12 01:33N 52°51' E 001°47'8018.7
2017-Jan-11 21:17N 52°07' E 003°36'1317.4
2017-Jan-11 20:34N 52°02' E 003°55'9 9.4
2017-Jan-11 19:33N 51°57' E 004°08'0 0.0
2017-Jan-11 18:33N 51°57' E 004°08'0 0.0
2017-Jan-11 17:32N 51°57' E 004°08'0 0.0
2017-Jan-11 16:32N 51°57' E 004°08'0 0.0
2017-Jan-11 15:31N 51°57' E 004°08'0 0.0
2017-Jan-11 14:31N 51°57' E 004°08'0 0.0
2017-Jan-11 13:27N 51°57' E 004°08'0 0.0
2017-Jan-11 12:33N 51°57' E 004°08'0 0.0
2017-Jan-11 11:33N 51°57' E 004°08'0 0.0
2017-Jan-11 10:33N 51°57' E 004°08'0 0.0
2017-Jan-11 09:32N 51°57' E 004°08'0 0.0
2017-Jan-11 08:31N 51°57' E 004°08'1 0.8
2017-Jan-11 07:33N 51°57' E 004°08'1616.2
2017-Jan-11 06:33N 52°03' E 003°43'7020.2
2017-Jan-11 03:06N 52°45' E 002°11'1019.4
2017-Jan-11 02:33N 52°53' E 002°00'  

Dump ship's entire track history